createdAt,value
2022-11-25T00:00:00.292Z,2.09
2022-11-25T00:02:36.396Z,2.12
2022-11-25T00:05:13.702Z,2.14
2022-11-25T00:07:49.556Z,2.16
2022-11-25T00:10:25.954Z,2.19
2022-11-25T00:13:01.945Z,2.24
2022-11-25T00:15:37.969Z,2.26
2022-11-25T00:18:14.029Z,2.28
2022-11-25T00:20:49.878Z,2.30
2022-11-25T00:23:29.188Z,2.32
2022-11-25T00:26:16.520Z,2.35
2022-11-25T00:28:53.629Z,2.37
2022-11-25T00:31:32.609Z,2.39
2022-11-25T00:34:12.253Z,2.42
2022-11-25T00:36:48.235Z,2.45
2022-11-25T00:39:25.791Z,2.48
2022-11-25T00:42:21.537Z,2.50
2022-11-25T00:44:57.466Z,2.53
2022-11-25T00:47:33.357Z,2.56
2022-11-25T00:50:12.585Z,2.59
2022-11-25T00:52:48.536Z,2.63
2022-11-25T00:55:25.382Z,2.66
2022-11-25T00:58:01.542Z,2.68
2022-11-25T01:00:37.559Z,2.70
2022-11-25T01:03:15.190Z,2.73
2022-11-25T01:05:51.033Z,2.75
2022-11-25T01:08:26.939Z,2.76
2022-11-25T01:11:08.079Z,2.76
2022-11-25T01:13:44.259Z,2.75
2022-11-25T01:16:23.632Z,2.74
2022-11-25T01:19:00.819Z,2.75
2022-11-25T01:21:38.286Z,2.76
2022-11-25T01:24:16.981Z,2.78
2022-11-25T01:26:54.881Z,2.80
2022-11-25T01:29:31.743Z,2.82
2022-11-25T01:32:08.595Z,2.85
2022-11-25T01:34:44.536Z,2.88
2022-11-25T01:37:20.372Z,2.90
2022-11-25T01:39:56.369Z,2.92
2022-11-25T01:42:35.524Z,2.94
2022-11-25T01:45:42.937Z,2.96
2022-11-25T01:48:27.264Z,2.97
2022-11-25T01:51:03.875Z,2.99
2022-11-25T01:53:40.128Z,3.01
2022-11-25T01:56:16.661Z,3.02
2022-11-25T01:58:54.335Z,3.03
2022-11-25T02:01:30.799Z,3.03
2022-11-25T02:04:11.008Z,3.02
2022-11-25T02:06:58.807Z,3.00
2022-11-25T02:09:36.104Z,2.98
2022-11-25T02:12:13.336Z,2.99
2022-11-25T02:14:49.982Z,2.98
2022-11-25T02:17:26.246Z,2.96
2022-11-25T02:20:09.658Z,2.92
2022-11-25T02:23:01.903Z,2.86
2022-11-25T02:25:41.023Z,2.81
2022-11-25T02:28:24.708Z,2.78
2022-11-25T02:31:01.197Z,2.76
2022-11-25T02:33:37.500Z,2.75
2022-11-25T02:36:21.423Z,2.74
2022-11-25T02:39:01.838Z,2.73
2022-11-25T02:41:44.884Z,2.70
2022-11-25T02:44:21.065Z,2.67
2022-11-25T02:46:56.876Z,2.66
2022-11-25T02:49:33.720Z,2.66
2022-11-25T02:52:09.935Z,2.64
2022-11-25T02:54:45.938Z,2.62
2022-11-25T02:57:21.766Z,2.63
2022-11-25T02:59:57.646Z,2.62
2022-11-25T03:02:34.299Z,2.63
2022-11-25T03:05:12.101Z,2.65
2022-11-25T03:07:48.003Z,2.68
2022-11-25T03:10:25.749Z,2.73
2022-11-25T03:13:02.875Z,2.76
2022-11-25T03:15:39.263Z,2.78
2022-11-25T03:18:15.492Z,2.81
2022-11-25T03:20:54.598Z,2.84
2022-11-25T03:23:32.557Z,2.88
2022-11-25T03:26:12.029Z,2.91
2022-11-25T03:28:47.945Z,2.94
2022-11-25T03:31:24.896Z,2.96
2022-11-25T03:34:01.216Z,2.98
2022-11-25T03:36:37.060Z,2.99
2022-11-25T03:39:13.141Z,3.00
2022-11-25T03:41:49.067Z,3.00
2022-11-25T03:44:26.387Z,3.00
2022-11-25T03:47:02.253Z,2.99
2022-11-25T03:49:38.520Z,3.00
2022-11-25T03:52:15.649Z,3.01
2022-11-25T03:54:51.738Z,3.02
2022-11-25T03:57:30.055Z,3.03
2022-11-25T04:00:09.467Z,3.04
2022-11-25T04:02:59.053Z,3.05
2022-11-25T04:05:35.120Z,3.07
2022-11-25T04:08:14.107Z,3.09
2022-11-25T04:10:51.625Z,3.11
2022-11-25T04:13:30.869Z,3.10
2022-11-25T04:16:07.137Z,3.10
2022-11-25T04:18:43.092Z,3.09
2022-11-25T04:21:19.243Z,3.10
2022-11-25T04:23:55.078Z,3.11
2022-11-25T04:26:31.675Z,3.11
2022-11-25T04:29:08.177Z,3.13
2022-11-25T04:31:44.911Z,3.15
2022-11-25T04:34:21.230Z,3.18
2022-11-25T04:36:58.103Z,3.20
2022-11-25T04:39:34.559Z,3.21
2022-11-25T04:42:32.900Z,3.23
2022-11-25T04:45:22.868Z,3.24
2022-11-25T04:48:00.425Z,3.24
2022-11-25T04:50:36.796Z,3.24
2022-11-25T04:53:17.803Z,3.24
2022-11-25T04:55:54.070Z,3.25
2022-11-25T04:58:49.681Z,3.27
2022-11-25T05:01:25.855Z,3.27
2022-11-25T05:04:05.376Z,3.29
2022-11-25T05:06:42.564Z,3.30
2022-11-25T05:09:18.608Z,3.32
2022-11-25T05:11:57.226Z,3.32
2022-11-25T05:14:35.039Z,3.32
2022-11-25T05:17:16.837Z,3.33
2022-11-25T05:19:53.708Z,3.35
2022-11-25T05:22:33.515Z,3.35
2022-11-25T05:25:11.999Z,3.37
2022-11-25T05:27:53.499Z,3.38
2022-11-25T05:30:29.769Z,3.39
2022-11-25T05:33:05.776Z,3.41
2022-11-25T05:35:41.721Z,3.42
2022-11-25T05:38:18.087Z,3.42
2022-11-25T05:40:55.390Z,3.42
2022-11-25T05:43:31.264Z,3.42
2022-11-25T05:46:11.392Z,3.42
2022-11-25T05:48:55.991Z,3.42
2022-11-25T05:51:33.371Z,3.45
2022-11-25T05:54:10.805Z,3.45
2022-11-25T05:56:47.958Z,3.47
2022-11-25T05:59:49.546Z,3.46
2022-11-25T06:03:08.440Z,3.46
2022-11-25T06:05:45.508Z,3.48
2022-11-25T06:08:21.930Z,3.49
2022-11-25T06:10:58.383Z,3.51
2022-11-25T06:13:34.761Z,3.51
2022-11-25T06:16:17.683Z,3.53
2022-11-25T06:18:54.673Z,3.56
2022-11-25T06:21:30.656Z,3.57
2022-11-25T06:24:06.935Z,3.58
2022-11-25T06:26:43.132Z,3.59
2022-11-25T06:29:19.860Z,3.59
2022-11-25T06:31:57.715Z,3.60
2022-11-25T06:35:26.614Z,3.62
2022-11-25T06:38:06.113Z,3.64
2022-11-25T06:40:42.376Z,3.66
2022-11-25T06:43:18.138Z,3.68
2022-11-25T06:45:53.979Z,3.70
2022-11-25T06:48:30.312Z,3.72
2022-11-25T06:51:09.722Z,3.75
2022-11-25T06:53:46.908Z,3.78
2022-11-25T06:56:25.580Z,3.81
2022-11-25T06:59:01.430Z,3.84
2022-11-25T07:01:38.448Z,3.88
2022-11-25T07:04:14.447Z,3.93
2022-11-25T07:06:51.665Z,3.96
2022-11-25T07:09:27.806Z,3.99
2022-11-25T07:12:03.650Z,4.00
2022-11-25T07:14:39.525Z,4.01
2022-11-25T07:17:15.604Z,3.99
2022-11-25T07:19:51.570Z,4.00
2022-11-25T07:22:27.520Z,4.00
2022-11-25T07:25:04.090Z,4.00
2022-11-25T07:27:40.083Z,3.99
2022-11-25T07:31:21.226Z,3.99
2022-11-25T07:33:14.255Z,4.01
2022-11-25T07:35:50.268Z,4.03
2022-11-25T07:38:26.320Z,4.04
2022-11-25T07:41:09.441Z,4.04
2022-11-25T07:43:48.602Z,4.04
2022-11-25T07:46:29.084Z,4.03
2022-11-25T07:49:08.747Z,4.01
2022-11-25T07:51:49.260Z,4.02
2022-11-25T07:54:26.685Z,4.03
2022-11-25T07:57:02.739Z,4.07
2022-11-25T07:59:41.361Z,4.11
2022-11-25T08:02:17.400Z,4.15
2022-11-25T08:04:53.440Z,4.20
2022-11-25T08:07:36.161Z,4.24
2022-11-25T08:10:14.817Z,4.30
2022-11-25T08:12:51.170Z,4.36
2022-11-25T08:15:27.223Z,4.42
2022-11-25T08:18:03.241Z,4.49
2022-11-25T08:20:39.275Z,4.53
2022-11-25T08:23:15.507Z,4.56
2022-11-25T08:25:51.495Z,4.57
2022-11-25T08:28:27.789Z,4.56
2022-11-25T08:31:12.853Z,4.56
2022-11-25T08:33:49.875Z,4.55
2022-11-25T08:36:27.278Z,4.53
2022-11-25T08:39:29.091Z,4.53
2022-11-25T08:42:05.497Z,4.54
2022-11-25T08:44:41.651Z,4.58
2022-11-25T08:47:17.774Z,4.61
2022-11-25T08:49:56.728Z,4.64
2022-11-25T08:52:32.863Z,4.66
2022-11-25T08:55:10.677Z,4.69
2022-11-25T08:57:46.844Z,4.73
2022-11-25T09:00:25.336Z,4.77
2022-11-25T09:03:04.261Z,4.82
2022-11-25T09:05:44.858Z,4.88
2022-11-25T09:08:20.963Z,4.96
2022-11-25T09:10:57.135Z,5.02
2022-11-25T09:13:33.658Z,5.08
2022-11-25T09:16:11.367Z,5.13
2022-11-25T09:18:52.402Z,5.18
2022-11-25T09:21:31.530Z,5.23
2022-11-25T09:24:08.101Z,5.30
2022-11-25T09:26:45.216Z,5.36
2022-11-25T09:29:22.228Z,5.37
2022-11-25T09:31:58.300Z,5.44
2022-11-25T09:34:34.494Z,5.45
2022-11-25T09:37:12.298Z,5.45
2022-11-25T09:39:48.248Z,5.46
2022-11-25T09:43:02.377Z,5.48
2022-11-25T09:46:10.505Z,5.50
2022-11-25T09:49:16.353Z,5.52
2022-11-25T09:52:13.591Z,5.53
2022-11-25T09:54:58.387Z,5.54
2022-11-25T09:57:59.583Z,5.54
2022-11-25T10:00:44.747Z,5.54
2022-11-25T10:03:35.784Z,5.55
2022-11-25T10:06:23.748Z,5.57
2022-11-25T10:09:06.033Z,5.61
2022-11-25T10:11:54.558Z,5.67
2022-11-25T10:14:48.381Z,5.74
2022-11-25T10:17:39.302Z,5.83
2022-11-25T10:20:24.728Z,5.91
2022-11-25T10:23:09.789Z,6.01
2022-11-25T10:25:53.706Z,6.13
2022-11-25T10:28:36.579Z,6.25
2022-11-25T10:31:22.245Z,6.34
2022-11-25T10:34:01.907Z,6.42
2022-11-25T10:36:43.111Z,6.53
2022-11-25T10:39:24.685Z,6.63
2022-11-25T10:42:08.378Z,6.70
2022-11-25T10:44:45.928Z,6.74
2022-11-25T10:47:57.598Z,6.80
2022-11-25T10:50:48.407Z,6.85
2022-11-25T10:53:30.242Z,6.91
2022-11-25T10:56:18.840Z,6.97
2022-11-25T10:58:57.252Z,7.00
2022-11-25T11:01:35.270Z,7.01
2022-11-25T11:04:19.096Z,7.05
2022-11-25T11:06:55.841Z,7.06
2022-11-25T11:09:41.977Z,7.09
2022-11-25T11:12:26.703Z,7.10
2022-11-25T11:15:25.884Z,7.09
2022-11-25T11:18:24.300Z,7.07
2022-11-25T11:21:02.765Z,7.05
2022-11-25T11:23:53.503Z,7.05
2022-11-25T11:26:35.230Z,7.05
2022-11-25T11:29:21.236Z,7.05
2022-11-25T11:32:04.062Z,7.06
2022-11-25T11:35:04.662Z,7.06
2022-11-25T11:37:47.416Z,7.04
2022-11-25T11:40:39.921Z,7.01
2022-11-25T11:44:07.978Z,6.95
2022-11-25T11:47:06.668Z,6.93
2022-11-25T11:50:24.516Z,6.89
2022-11-25T11:53:18.915Z,6.91
2022-11-25T11:59:48.814Z,6.91
2022-11-25T12:02:53.367Z,6.90
2022-11-25T12:05:35.558Z,6.90
2022-11-25T12:08:18.223Z,6.94
2022-11-25T12:11:03.525Z,6.97
2022-11-25T12:13:59.365Z,6.99
2022-11-25T12:16:44.896Z,6.98
2022-11-25T12:19:34.468Z,6.98
2022-11-25T12:22:20.302Z,6.97
2022-11-25T12:25:07.407Z,6.94
2022-11-25T12:27:49.045Z,6.91
2022-11-25T12:30:30.637Z,6.87
2022-11-25T12:33:21.395Z,6.83
2022-11-25T12:36:11.495Z,6.74
2022-11-25T12:38:56.030Z,6.63
2022-11-25T12:41:44.213Z,6.57
2022-11-25T12:44:26.973Z,6.51
2022-11-25T12:47:03.303Z,6.46
2022-11-25T12:49:46.520Z,6.41
2022-11-25T12:52:55.059Z,6.32
2022-11-25T12:55:34.040Z,6.23
2022-11-25T12:58:50.998Z,6.20
2022-11-25T13:02:01.800Z,6.19
2022-11-25T13:05:41.053Z,6.16
2022-11-25T13:08:51.695Z,6.12
2022-11-25T13:12:06.829Z,6.07
2022-11-25T13:15:24.497Z,5.99
2022-11-25T13:18:10.699Z,5.92
2022-11-25T13:20:53.613Z,5.87
2022-11-25T13:23:49.076Z,5.89
2022-11-25T13:26:54.935Z,5.88
2022-11-25T13:30:02.295Z,5.80
2022-11-25T13:32:46.089Z,5.73
2022-11-25T13:35:57.359Z,5.71
2022-11-25T13:39:16.036Z,5.68
2022-11-25T13:42:06.624Z,5.64
2022-11-25T13:44:56.032Z,5.58
2022-11-25T13:47:42.671Z,5.53
2022-11-25T13:50:48.386Z,5.48
2022-11-25T13:53:34.623Z,5.44
2022-11-25T13:56:35.676Z,5.41
2022-11-25T13:59:49.751Z,5.38
2022-11-25T14:02:50.035Z,5.36
2022-11-25T14:06:08.759Z,5.33
2022-11-25T14:09:00.422Z,5.29
2022-11-25T14:12:10.783Z,5.24
2022-11-25T14:15:07.534Z,5.18
2022-11-25T14:19:03.615Z,5.15
2022-11-25T14:22:14.006Z,5.10
2022-11-25T14:24:55.502Z,5.04
2022-11-25T14:27:37.256Z,5.01
2022-11-25T14:30:18.208Z,4.98
2022-11-25T14:33:03.376Z,4.93
2022-11-25T14:35:49.289Z,4.90
2022-11-25T14:38:36.296Z,4.85
2022-11-25T14:41:21.185Z,4.83
2022-11-25T14:44:05.914Z,4.79
2022-11-25T14:46:56.237Z,4.75
2022-11-25T14:52:37.697Z,4.71
2022-11-25T14:55:15.588Z,4.73
2022-11-25T14:57:53.327Z,4.70
2022-11-25T15:00:30.278Z,4.66
2022-11-25T15:03:08.150Z,4.62
2022-11-25T15:05:44.595Z,4.59
2022-11-25T15:08:22.236Z,4.58
2022-11-25T15:11:03.390Z,4.57
2022-11-25T15:13:44.338Z,4.58
2022-11-25T15:16:26.212Z,4.59
2022-11-25T15:19:02.479Z,4.58
2022-11-25T15:22:14.474Z,4.57
2022-11-25T15:24:53.314Z,4.58
2022-11-25T15:27:35.507Z,4.61
2022-11-25T15:30:29.395Z,4.63
2022-11-25T15:33:05.892Z,4.65
2022-11-25T15:35:42.037Z,4.67
2022-11-25T15:38:42.665Z,4.69
2022-11-25T15:41:36.008Z,4.70
2022-11-25T15:44:23.456Z,4.71
2022-11-25T15:47:06.510Z,4.72
2022-11-25T15:49:42.668Z,4.74
2022-11-25T15:52:24.402Z,4.75
2022-11-25T15:55:07.192Z,4.76
2022-11-25T15:57:43.163Z,4.77
2022-11-25T16:00:26.132Z,4.78
2022-11-25T16:03:04.321Z,4.79
2022-11-25T16:05:55.764Z,4.79
2022-11-25T16:08:42.690Z,4.78
2022-11-25T16:11:20.599Z,4.78
2022-11-25T16:14:17.742Z,4.79
2022-11-25T16:16:55.530Z,4.79
2022-11-25T16:19:40.217Z,4.80
2022-11-25T16:22:21.398Z,4.81
2022-11-25T16:25:02.393Z,4.82
2022-11-25T16:27:41.808Z,4.81
2022-11-25T16:30:25.635Z,4.81
2022-11-25T16:33:01.969Z,4.82
2022-11-25T16:35:41.470Z,4.81
2022-11-25T16:38:17.854Z,4.80
2022-11-25T16:40:55.610Z,4.79
2022-11-25T16:43:32.784Z,4.79
2022-11-25T16:46:12.300Z,4.79
2022-11-25T16:48:49.084Z,4.78
2022-11-25T16:51:27.049Z,4.79
2022-11-25T16:54:03.223Z,4.80
2022-11-25T16:56:43.901Z,4.81
2022-11-25T16:59:29.160Z,4.81
2022-11-25T17:02:14.229Z,4.83
2022-11-25T17:04:50.904Z,4.81
2022-11-25T17:07:34.688Z,4.78
2022-11-25T17:10:14.370Z,4.76
2022-11-25T17:12:51.765Z,4.76
2022-11-25T17:15:36.610Z,4.76
2022-11-25T17:18:18.604Z,4.74
2022-11-25T17:20:53.161Z,4.74
2022-11-25T17:23:30.518Z,4.72
2022-11-25T17:26:07.250Z,4.71
2022-11-25T17:28:43.214Z,4.67
2022-11-25T17:31:19.171Z,4.62
2022-11-25T17:33:55.524Z,4.55
2022-11-25T17:36:31.510Z,4.51
2022-11-25T17:39:07.813Z,4.49
2022-11-25T17:41:49.027Z,4.49
2022-11-25T17:44:30.659Z,4.49
2022-11-25T17:47:13.522Z,4.52
2022-11-25T17:49:49.723Z,4.53
2022-11-25T17:52:26.041Z,4.51
2022-11-25T17:55:02.336Z,4.50
2022-11-25T17:57:38.852Z,4.50
2022-11-25T18:00:22.830Z,4.51
2022-11-25T18:02:58.909Z,4.52
2022-11-25T18:05:35.208Z,4.53
2022-11-25T18:08:11.401Z,4.53
2022-11-25T18:10:50.055Z,4.51
2022-11-25T18:13:26.379Z,4.49
2022-11-25T18:16:02.429Z,4.45
2022-11-25T18:18:38.606Z,4.40
2022-11-25T18:21:15.982Z,4.32
2022-11-25T18:23:52.372Z,4.23
2022-11-25T18:26:28.590Z,4.16
2022-11-25T18:29:08.068Z,4.12
2022-11-25T18:31:45.969Z,4.10
2022-11-25T18:34:22.719Z,4.07
2022-11-25T18:36:58.998Z,4.03
2022-11-25T18:39:35.049Z,4.04
2022-11-25T18:42:20.714Z,4.06
2022-11-25T18:44:57.459Z,4.06
2022-11-25T18:47:33.460Z,4.08
2022-11-25T18:50:20.554Z,4.09
2022-11-25T18:52:56.996Z,4.10
2022-11-25T18:55:33.112Z,4.10
2022-11-25T18:58:18.577Z,4.11
2022-11-25T19:01:05.865Z,4.12
2022-11-25T19:03:43.156Z,4.14
2022-11-25T19:06:20.459Z,4.16
2022-11-25T19:08:56.825Z,4.18
2022-11-25T19:11:39.898Z,4.20
2022-11-25T19:14:29.200Z,4.22
2022-11-25T19:17:19.423Z,4.22
2022-11-25T19:20:00.478Z,4.24
2022-11-25T19:22:39.079Z,4.24
2022-11-25T19:25:16.718Z,4.23
2022-11-25T19:28:03.754Z,4.22
2022-11-25T19:30:41.079Z,4.23
2022-11-25T19:33:28.862Z,4.23
2022-11-25T19:36:05.169Z,4.22
2022-11-25T19:38:41.733Z,4.19
2022-11-25T19:41:18.924Z,4.19
2022-11-25T19:43:55.184Z,4.20
2022-11-25T19:46:52.612Z,4.20
2022-11-25T19:49:32.893Z,4.21
2022-11-25T19:52:17.336Z,4.22
2022-11-25T19:54:56.257Z,4.25
2022-11-25T19:57:32.165Z,4.26
2022-11-25T20:00:11.214Z,4.26
2022-11-25T20:02:50.189Z,4.26
2022-11-25T20:05:35.230Z,4.28
2022-11-25T20:08:23.835Z,4.29
2022-11-25T20:11:00.955Z,4.27
2022-11-25T20:13:36.851Z,4.26
2022-11-25T20:16:22.046Z,4.25
2022-11-25T20:18:58.994Z,4.24
2022-11-25T20:21:40.877Z,4.24
2022-11-25T20:24:22.819Z,4.26
2022-11-25T20:26:59.419Z,4.27
2022-11-25T20:29:35.684Z,4.29
2022-11-25T20:32:27.931Z,4.31
2022-11-25T20:35:08.825Z,4.33
2022-11-25T20:38:00.469Z,4.35
2022-11-25T20:40:45.046Z,4.35
2022-11-25T20:43:30.731Z,4.34
2022-11-25T20:46:16.956Z,4.34
2022-11-25T20:48:57.555Z,4.36
2022-11-25T20:51:33.917Z,4.38
2022-11-25T20:54:14.351Z,4.39
2022-11-25T20:56:50.465Z,4.41
2022-11-25T20:59:28.878Z,4.42
2022-11-25T21:02:05.959Z,4.43
2022-11-25T21:04:43.382Z,4.44
2022-11-25T21:07:20.134Z,4.44
2022-11-25T21:09:56.672Z,4.45
2022-11-25T21:12:32.859Z,4.46
2022-11-25T21:15:19.767Z,4.47
2022-11-25T21:17:57.711Z,4.48
2022-11-25T21:20:34.094Z,4.50
2022-11-25T21:23:19.609Z,4.52
2022-11-25T21:25:56.711Z,4.53
2022-11-25T21:28:33.621Z,4.54
2022-11-25T21:31:14.238Z,4.55
2022-11-25T21:33:51.726Z,4.52
2022-11-25T21:36:32.053Z,4.50
2022-11-25T21:39:21.339Z,4.46
2022-11-25T21:41:59.336Z,4.43
2022-11-25T21:44:41.925Z,4.42
2022-11-25T21:47:22.264Z,4.42
2022-11-25T21:49:59.388Z,4.43
2022-11-25T21:52:35.655Z,4.43
2022-11-25T21:55:15.054Z,4.43
2022-11-25T21:57:51.557Z,4.41
2022-11-25T22:00:30.168Z,4.40
2022-11-25T22:03:06.817Z,4.39
2022-11-25T22:05:42.769Z,4.38
2022-11-25T22:08:19.271Z,4.38
2022-11-25T22:10:58.034Z,4.39
2022-11-25T22:13:40.151Z,4.39
2022-11-25T22:16:25.876Z,4.37
2022-11-25T22:19:02.192Z,4.35
2022-11-25T22:21:38.193Z,4.35
2022-11-25T22:24:19.950Z,4.35
2022-11-25T22:26:58.297Z,4.35
2022-11-25T22:29:38.808Z,4.33
2022-11-25T22:32:18.028Z,4.31
2022-11-25T22:34:53.848Z,4.29
2022-11-25T22:37:30.773Z,4.29
2022-11-25T22:40:08.508Z,4.30
2022-11-25T22:42:49.771Z,4.30
2022-11-25T22:45:33.910Z,4.32
2022-11-25T22:48:15.932Z,4.33
2022-11-25T22:50:52.253Z,4.34
2022-11-25T22:53:28.472Z,4.35
2022-11-25T22:56:04.445Z,4.35
2022-11-25T22:58:40.532Z,4.36
2022-11-25T23:01:27.350Z,4.36
2022-11-25T23:04:04.356Z,4.38
2022-11-25T23:06:40.931Z,4.38
2022-11-25T23:09:21.499Z,4.35
2022-11-25T23:11:57.555Z,4.31
2022-11-25T23:14:33.402Z,4.27
2022-11-25T23:17:17.279Z,4.24
2022-11-25T23:19:54.809Z,4.23
2022-11-25T23:22:30.919Z,4.24
2022-11-25T23:25:16.035Z,4.26
2022-11-25T23:27:52.239Z,4.29
2022-11-25T23:30:29.305Z,4.31
2022-11-25T23:33:11.740Z,4.33
2022-11-25T23:35:48.731Z,4.35
2022-11-25T23:38:29.862Z,4.36
2022-11-25T23:41:05.878Z,4.38
2022-11-25T23:43:41.888Z,4.39
2022-11-25T23:46:23.838Z,4.40
2022-11-25T23:49:01.882Z,4.41
2022-11-25T23:51:38.025Z,4.40
2022-11-25T23:54:21.406Z,4.42
2022-11-25T23:56:57.323Z,4.42
2022-11-25T23:59:33.689Z,4.42
